sensor_id;sensor_type;location;lat;lon;timestamp;P1;durP1;ratioP1;P2;durP2;ratioP2
28078;SDS011;15388;42.238;24.684;2023-06-26T00:01:41;18.73;;;11.27;;
28078;SDS011;15388;42.238;24.684;2023-06-26T00:04:07;21.27;;;12.75;;
28078;SDS011;15388;42.238;24.684;2023-06-26T00:06:32;18.17;;;12.60;;
28078;SDS011;15388;42.238;24.684;2023-06-26T00:08:58;18.10;;;11.73;;
28078;SDS011;15388;42.238;24.684;2023-06-26T00:11:23;19.02;;;12.13;;
28078;SDS011;15388;42.238;24.684;2023-06-26T00:13:49;18.08;;;12.75;;
28078;SDS011;15388;42.238;24.684;2023-06-26T00:16:14;21.50;;;12.77;;
28078;SDS011;15388;42.238;24.684;2023-06-26T00:18:39;22.00;;;11.73;;
28078;SDS011;15388;42.238;24.684;2023-06-26T00:21:05;18.60;;;12.45;;
28078;SDS011;15388;42.238;24.684;2023-06-26T00:23:30;23.50;;;12.35;;
28078;SDS011;15388;42.238;24.684;2023-06-26T00:26:01;19.10;;;12.20;;
28078;SDS011;15388;42.238;24.684;2023-06-26T00:28:27;16.23;;;13.88;;
28078;SDS011;15388;42.238;24.684;2023-06-26T00:30:52;23.30;;;13.97;;
28078;SDS011;15388;42.238;24.684;2023-06-26T00:33:17;20.80;;;13.80;;
28078;SDS011;15388;42.238;24.684;2023-06-26T00:35:42;18.05;;;14.05;;
28078;SDS011;15388;42.238;24.684;2023-06-26T00:38:07;22.33;;;13.57;;
28078;SDS011;15388;42.238;24.684;2023-06-26T00:40:33;23.60;;;13.77;;
28078;SDS011;15388;42.238;24.684;2023-06-26T00:42:58;21.48;;;13.65;;
28078;SDS011;15388;42.238;24.684;2023-06-26T00:45:23;20.70;;;13.25;;
28078;SDS011;15388;42.238;24.684;2023-06-26T00:47:48;19.67;;;13.27;;
28078;SDS011;15388;42.238;24.684;2023-06-26T00:50:14;16.90;;;13.43;;
28078;SDS011;15388;42.238;24.684;2023-06-26T00:52:41;18.50;;;13.85;;
28078;SDS011;15388;42.238;24.684;2023-06-26T00:55:06;15.88;;;13.23;;
28078;SDS011;15388;42.238;24.684;2023-06-26T00:57:32;19.95;;;13.48;;
28078;SDS011;15388;42.238;24.684;2023-06-26T00:59:58;19.42;;;13.82;;
28078;SDS011;15388;42.238;24.684;2023-06-26T01:02:23;17.17;;;13.23;;
28078;SDS011;15388;42.238;24.684;2023-06-26T01:04:51;19.98;;;13.88;;
28078;SDS011;15388;42.238;24.684;2023-06-26T01:07:17;19.05;;;14.32;;
28078;SDS011;15388;42.238;24.684;2023-06-26T01:09:44;20.95;;;14.13;;
28078;SDS011;15388;42.238;24.684;2023-06-26T01:12:10;18.65;;;14.25;;
28078;SDS011;15388;42.238;24.684;2023-06-26T01:14:35;22.15;;;15.15;;
28078;SDS011;15388;42.238;24.684;2023-06-26T01:17:01;21.33;;;13.48;;
28078;SDS011;15388;42.238;24.684;2023-06-26T01:19:28;20.80;;;14.43;;
28078;SDS011;15388;42.238;24.684;2023-06-26T01:21:58;18.17;;;14.75;;
28078;SDS011;15388;42.238;24.684;2023-06-26T01:24:25;22.50;;;15.10;;
28078;SDS011;15388;42.238;24.684;2023-06-26T01:26:52;20.80;;;14.52;;
28078;SDS011;15388;42.238;24.684;2023-06-26T01:29:18;21.52;;;14.30;;
28078;SDS011;15388;42.238;24.684;2023-06-26T01:31:43;21.52;;;14.82;;
28078;SDS011;15388;42.238;24.684;2023-06-26T01:34:11;20.70;;;14.80;;
28078;SDS011;15388;42.238;24.684;2023-06-26T01:36:36;22.77;;;15.15;;
28078;SDS011;15388;42.238;24.684;2023-06-26T01:39:02;21.85;;;14.77;;
28078;SDS011;15388;42.238;24.684;2023-06-26T01:41:27;25.77;;;14.23;;
28078;SDS011;15388;42.238;24.684;2023-06-26T01:46:39;23.58;;;14.88;;
28078;SDS011;15388;42.238;24.684;2023-06-26T01:49:12;24.05;;;14.65;;
28078;SDS011;15388;42.238;24.684;2023-06-26T01:51:42;22.48;;;13.85;;
28078;SDS011;15388;42.238;24.684;2023-06-26T01:54:14;24.40;;;14.27;;
28078;SDS011;15388;42.238;24.684;2023-06-26T01:56:41;18.45;;;14.07;;
28078;SDS011;15388;42.238;24.684;2023-06-26T01:59:07;25.88;;;16.02;;
28078;SDS011;15388;42.238;24.684;2023-06-26T02:01:33;20.23;;;13.38;;
28078;SDS011;15388;42.238;24.684;2023-06-26T02:03:59;21.50;;;15.10;;
28078;SDS011;15388;42.238;24.684;2023-06-26T02:06:24;23.15;;;15.68;;
28078;SDS011;15388;42.238;24.684;2023-06-26T02:08:50;25.77;;;15.32;;
28078;SDS011;15388;42.238;24.684;2023-06-26T02:11:15;19.37;;;14.10;;
28078;SDS011;15388;42.238;24.684;2023-06-26T02:13:40;23.40;;;15.60;;
28078;SDS011;15388;42.238;24.684;2023-06-26T02:16:05;19.02;;;14.13;;
28078;SDS011;15388;42.238;24.684;2023-06-26T02:18:31;21.02;;;15.40;;
28078;SDS011;15388;42.238;24.684;2023-06-26T02:20:56;20.70;;;14.83;;
28078;SDS011;15388;42.238;24.684;2023-06-26T02:23:21;22.30;;;16.38;;
28078;SDS011;15388;42.238;24.684;2023-06-26T02:25:46;22.43;;;15.27;;
28078;SDS011;15388;42.238;24.684;2023-06-26T02:28:12;21.73;;;15.33;;
28078;SDS011;15388;42.238;24.684;2023-06-26T02:30:37;25.83;;;15.30;;
28078;SDS011;15388;42.238;24.684;2023-06-26T02:33:02;26.83;;;17.35;;
28078;SDS011;15388;42.238;24.684;2023-06-26T02:35:27;20.15;;;16.35;;
28078;SDS011;15388;42.238;24.684;2023-06-26T02:37:53;27.95;;;17.30;;
28078;SDS011;15388;42.238;24.684;2023-06-26T02:40:18;29.23;;;17.47;;
28078;SDS011;15388;42.238;24.684;2023-06-26T02:42:43;22.75;;;17.10;;
28078;SDS011;15388;42.238;24.684;2023-06-26T02:45:09;23.10;;;16.93;;
28078;SDS011;15388;42.238;24.684;2023-06-26T02:47:34;23.38;;;16.23;;
28078;SDS011;15388;42.238;24.684;2023-06-26T02:49:59;24.95;;;15.63;;
28078;SDS011;15388;42.238;24.684;2023-06-26T02:52:24;23.90;;;15.37;;
28078;SDS011;15388;42.238;24.684;2023-06-26T02:54:50;24.45;;;15.75;;
28078;SDS011;15388;42.238;24.684;2023-06-26T02:57:15;20.57;;;16.27;;
28078;SDS011;15388;42.238;24.684;2023-06-26T02:59:42;25.85;;;16.17;;
28078;SDS011;15388;42.238;24.684;2023-06-26T03:02:07;28.57;;;15.77;;
28078;SDS011;15388;42.238;24.684;2023-06-26T03:04:32;21.23;;;15.57;;
28078;SDS011;15388;42.238;24.684;2023-06-26T03:07:01;24.30;;;14.93;;
28078;SDS011;15388;42.238;24.684;2023-06-26T03:09:26;28.20;;;16.83;;
28078;SDS011;15388;42.238;24.684;2023-06-26T03:11:52;28.57;;;14.53;;
28078;SDS011;15388;42.238;24.684;2023-06-26T03:14:18;24.13;;;16.90;;
28078;SDS011;15388;42.238;24.684;2023-06-26T03:16:43;24.15;;;15.63;;
28078;SDS011;15388;42.238;24.684;2023-06-26T03:19:09;18.88;;;15.98;;
28078;SDS011;15388;42.238;24.684;2023-06-26T03:21:34;28.23;;;16.92;;
28078;SDS011;15388;42.238;24.684;2023-06-26T03:23:59;22.42;;;16.98;;
28078;SDS011;15388;42.238;24.684;2023-06-26T03:26:24;26.17;;;16.00;;
28078;SDS011;15388;42.238;24.684;2023-06-26T03:28:52;22.50;;;15.55;;
28078;SDS011;15388;42.238;24.684;2023-06-26T03:31:18;31.60;;;16.85;;
28078;SDS011;15388;42.238;24.684;2023-06-26T03:33:43;26.00;;;16.75;;
28078;SDS011;15388;42.238;24.684;2023-06-26T03:36:09;27.30;;;15.63;;
28078;SDS011;15388;42.238;24.684;2023-06-26T03:38:34;19.70;;;15.38;;
28078;SDS011;15388;42.238;24.684;2023-06-26T03:40:59;21.80;;;15.27;;
28078;SDS011;15388;42.238;24.684;2023-06-26T03:43:24;22.85;;;14.05;;
28078;SDS011;15388;42.238;24.684;2023-06-26T03:45:50;20.92;;;13.65;;
28078;SDS011;15388;42.238;24.684;2023-06-26T03:48:15;20.17;;;14.98;;
28078;SDS011;15388;42.238;24.684;2023-06-26T03:50:40;22.10;;;15.10;;
28078;SDS011;15388;42.238;24.684;2023-06-26T03:53:05;19.05;;;15.75;;
28078;SDS011;15388;42.238;24.684;2023-06-26T03:55:31;21.10;;;14.85;;
28078;SDS011;15388;42.238;24.684;2023-06-26T03:57:56;19.98;;;13.85;;
28078;SDS011;15388;42.238;24.684;2023-06-26T04:00:21;20.37;;;16.10;;
28078;SDS011;15388;42.238;24.684;2023-06-26T04:02:47;20.50;;;13.68;;
28078;SDS011;15388;42.238;24.684;2023-06-26T04:05:12;18.80;;;15.60;;
28078;SDS011;15388;42.238;24.684;2023-06-26T04:07:37;19.53;;;14.23;;
28078;SDS011;15388;42.238;24.684;2023-06-26T04:10:03;20.27;;;14.75;;
28078;SDS011;15388;42.238;24.684;2023-06-26T04:12:28;22.30;;;15.80;;
28078;SDS011;15388;42.238;24.684;2023-06-26T04:14:53;24.15;;;16.55;;
28078;SDS011;15388;42.238;24.684;2023-06-26T04:17:19;21.23;;;14.93;;
28078;SDS011;15388;42.238;24.684;2023-06-26T04:19:44;22.92;;;16.67;;
28078;SDS011;15388;42.238;24.684;2023-06-26T04:22:10;18.52;;;14.35;;
28078;SDS011;15388;42.238;24.684;2023-06-26T04:24:35;18.20;;;15.02;;
28078;SDS011;15388;42.238;24.684;2023-06-26T04:27:00;23.45;;;16.25;;
28078;SDS011;15388;42.238;24.684;2023-06-26T04:29:26;24.08;;;16.90;;
28078;SDS011;15388;42.238;24.684;2023-06-26T04:31:52;25.98;;;17.38;;
28078;SDS011;15388;42.238;24.684;2023-06-26T04:34:17;25.25;;;17.40;;
28078;SDS011;15388;42.238;24.684;2023-06-26T04:36:42;25.37;;;18.63;;
28078;SDS011;15388;42.238;24.684;2023-06-26T04:39:11;27.15;;;18.00;;
28078;SDS011;15388;42.238;24.684;2023-06-26T04:41:37;24.52;;;18.67;;
28078;SDS011;15388;42.238;24.684;2023-06-26T04:44:02;23.20;;;17.92;;
28078;SDS011;15388;42.238;24.684;2023-06-26T04:46:27;23.38;;;18.23;;
28078;SDS011;15388;42.238;24.684;2023-06-26T04:48:53;27.48;;;19.02;;
28078;SDS011;15388;42.238;24.684;2023-06-26T04:51:18;23.60;;;17.80;;
28078;SDS011;15388;42.238;24.684;2023-06-26T04:53:45;27.95;;;18.17;;
28078;SDS011;15388;42.238;24.684;2023-06-26T04:56:11;23.03;;;16.60;;
28078;SDS011;15388;42.238;24.684;2023-06-26T04:58:36;25.05;;;17.05;;
28078;SDS011;15388;42.238;24.684;2023-06-26T05:01:02;24.27;;;16.77;;
28078;SDS011;15388;42.238;24.684;2023-06-26T05:03:27;18.40;;;15.20;;
28078;SDS011;15388;42.238;24.684;2023-06-26T05:05:53;23.80;;;16.70;;
28078;SDS011;15388;42.238;24.684;2023-06-26T05:08:22;25.67;;;16.73;;
28078;SDS011;15388;42.238;24.684;2023-06-26T05:10:47;19.98;;;17.10;;
28078;SDS011;15388;42.238;24.684;2023-06-26T05:13:13;17.42;;;15.35;;
28078;SDS011;15388;42.238;24.684;2023-06-26T05:15:40;22.58;;;19.05;;
28078;SDS011;15388;42.238;24.684;2023-06-26T05:18:06;25.58;;;18.65;;
28078;SDS011;15388;42.238;24.684;2023-06-26T05:20:31;21.15;;;17.15;;
28078;SDS011;15388;42.238;24.684;2023-06-26T05:22:56;23.15;;;17.98;;
28078;SDS011;15388;42.238;24.684;2023-06-26T05:25:22;20.65;;;16.17;;
28078;SDS011;15388;42.238;24.684;2023-06-26T05:27:48;21.05;;;18.17;;
28078;SDS011;15388;42.238;24.684;2023-06-26T05:30:14;22.10;;;16.70;;
28078;SDS011;15388;42.238;24.684;2023-06-26T05:32:40;24.05;;;16.95;;
28078;SDS011;15388;42.238;24.684;2023-06-26T05:35:05;19.73;;;16.38;;
28078;SDS011;15388;42.238;24.684;2023-06-26T05:37:31;19.50;;;15.98;;
28078;SDS011;15388;42.238;24.684;2023-06-26T05:39:58;20.05;;;14.80;;
28078;SDS011;15388;42.238;24.684;2023-06-26T05:42:23;23.55;;;14.80;;
28078;SDS011;15388;42.238;24.684;2023-06-26T05:44:48;23.23;;;15.60;;
28078;SDS011;15388;42.238;24.684;2023-06-26T05:47:14;19.40;;;14.63;;
28078;SDS011;15388;42.238;24.684;2023-06-26T05:49:39;17.40;;;12.97;;
28078;SDS011;15388;42.238;24.684;2023-06-26T05:52:04;22.52;;;12.50;;
28078;SDS011;15388;42.238;24.684;2023-06-26T05:54:30;16.42;;;13.35;;
28078;SDS011;15388;42.238;24.684;2023-06-26T05:56:56;15.32;;;12.73;;
28078;SDS011;15388;42.238;24.684;2023-06-26T05:59:22;16.17;;;14.47;;
28078;SDS011;15388;42.238;24.684;2023-06-26T06:01:47;15.48;;;13.40;;
28078;SDS011;15388;42.238;24.684;2023-06-26T06:04:12;27.23;;;15.03;;
28078;SDS011;15388;42.238;24.684;2023-06-26T06:06:37;17.48;;;14.13;;
28078;SDS011;15388;42.238;24.684;2023-06-26T06:09:03;17.13;;;13.57;;
28078;SDS011;15388;42.238;24.684;2023-06-26T06:11:28;16.13;;;14.07;;
28078;SDS011;15388;42.238;24.684;2023-06-26T06:13:55;18.27;;;14.13;;
28078;SDS011;15388;42.238;24.684;2023-06-26T06:16:20;18.20;;;14.35;;
28078;SDS011;15388;42.238;24.684;2023-06-26T06:18:45;18.80;;;12.00;;
28078;SDS011;15388;42.238;24.684;2023-06-26T06:21:10;16.63;;;12.57;;
28078;SDS011;15388;42.238;24.684;2023-06-26T06:23:36;16.53;;;13.80;;
28078;SDS011;15388;42.238;24.684;2023-06-26T06:26:01;16.03;;;13.87;;
28078;SDS011;15388;42.238;24.684;2023-06-26T06:28:26;16.57;;;12.23;;
28078;SDS011;15388;42.238;24.684;2023-06-26T06:30:51;23.23;;;11.77;;
28078;SDS011;15388;42.238;24.684;2023-06-26T06:33:17;12.70;;;10.83;;
28078;SDS011;15388;42.238;24.684;2023-06-26T06:35:42;14.27;;;12.30;;
28078;SDS011;15388;42.238;24.684;2023-06-26T06:38:07;13.83;;;10.47;;
28078;SDS011;15388;42.238;24.684;2023-06-26T06:40:32;18.05;;;10.15;;
28078;SDS011;15388;42.238;24.684;2023-06-26T06:42:58;10.57;;;9.20;;
28078;SDS011;15388;42.238;24.684;2023-06-26T06:45:23;12.80;;;8.27;;
28078;SDS011;15388;42.238;24.684;2023-06-26T06:47:48;11.68;;;8.95;;
28078;SDS011;15388;42.238;24.684;2023-06-26T06:50:13;11.57;;;9.88;;
28078;SDS011;15388;42.238;24.684;2023-06-26T06:55:06;12.82;;;9.20;;
28078;SDS011;15388;42.238;24.684;2023-06-26T06:57:33;9.57;;;8.57;;
28078;SDS011;15388;42.238;24.684;2023-06-26T07:00:01;10.98;;;8.35;;
28078;SDS011;15388;42.238;24.684;2023-06-26T07:02:28;15.60;;;9.18;;
28078;SDS011;15388;42.238;24.684;2023-06-26T07:04:53;12.43;;;9.50;;
28078;SDS011;15388;42.238;24.684;2023-06-26T07:07:18;11.77;;;9.23;;
28078;SDS011;15388;42.238;24.684;2023-06-26T07:09:43;28.63;;;9.75;;
28078;SDS011;15388;42.238;24.684;2023-06-26T07:12:09;17.40;;;9.13;;
28078;SDS011;15388;42.238;24.684;2023-06-26T07:14:35;13.50;;;9.60;;
28078;SDS011;15388;42.238;24.684;2023-06-26T07:17:00;13.48;;;7.38;;
28078;SDS011;15388;42.238;24.684;2023-06-26T07:19:26;9.68;;;8.40;;
28078;SDS011;15388;42.238;24.684;2023-06-26T07:21:51;12.32;;;8.23;;
28078;SDS011;15388;42.238;24.684;2023-06-26T07:24:16;11.20;;;7.90;;
28078;SDS011;15388;42.238;24.684;2023-06-26T07:26:41;11.00;;;6.70;;
28078;SDS011;15388;42.238;24.684;2023-06-26T07:29:07;12.50;;;7.87;;
28078;SDS011;15388;42.238;24.684;2023-06-26T07:31:32;9.70;;;8.32;;
28078;SDS011;15388;42.238;24.684;2023-06-26T07:33:57;8.82;;;7.63;;
28078;SDS011;15388;42.238;24.684;2023-06-26T07:36:22;12.47;;;8.27;;
28078;SDS011;15388;42.238;24.684;2023-06-26T07:38:48;11.73;;;7.97;;
28078;SDS011;15388;42.238;24.684;2023-06-26T07:41:13;10.03;;;7.07;;
28078;SDS011;15388;42.238;24.684;2023-06-26T07:43:38;8.20;;;7.40;;
28078;SDS011;15388;42.238;24.684;2023-06-26T07:46:03;11.20;;;9.13;;
28078;SDS011;15388;42.238;24.684;2023-06-26T07:48:29;11.20;;;8.00;;
28078;SDS011;15388;42.238;24.684;2023-06-26T07:50:54;22.90;;;9.10;;
28078;SDS011;15388;42.238;24.684;2023-06-26T07:53:19;9.60;;;7.72;;
28078;SDS011;15388;42.238;24.684;2023-06-26T07:55:44;11.50;;;8.13;;
28078;SDS011;15388;42.238;24.684;2023-06-26T07:58:10;13.00;;;8.70;;
28078;SDS011;15388;42.238;24.684;2023-06-26T08:00:35;10.80;;;7.70;;
28078;SDS011;15388;42.238;24.684;2023-06-26T08:03:00;11.00;;;8.15;;
28078;SDS011;15388;42.238;24.684;2023-06-26T08:05:25;10.03;;;7.87;;
28078;SDS011;15388;42.238;24.684;2023-06-26T08:07:51;16.88;;;8.73;;
28078;SDS011;15388;42.238;24.684;2023-06-26T08:10:16;8.27;;;7.20;;
28078;SDS011;15388;42.238;24.684;2023-06-26T08:12:41;11.43;;;8.70;;
28078;SDS011;15388;42.238;24.684;2023-06-26T08:15:09;18.50;;;7.88;;
28078;SDS011;15388;42.238;24.684;2023-06-26T08:17:35;11.00;;;7.25;;
28078;SDS011;15388;42.238;24.684;2023-06-26T08:20:01;7.93;;;7.13;;
28078;SDS011;15388;42.238;24.684;2023-06-26T08:22:26;16.45;;;7.88;;
28078;SDS011;15388;42.238;24.684;2023-06-26T08:24:51;9.20;;;6.77;;
28078;SDS011;15388;42.238;24.684;2023-06-26T08:27:17;14.73;;;7.13;;
28078;SDS011;15388;42.238;24.684;2023-06-26T08:29:42;20.53;;;7.63;;
28078;SDS011;15388;42.238;24.684;2023-06-26T08:32:07;10.27;;;7.70;;
28078;SDS011;15388;42.238;24.684;2023-06-26T08:34:32;11.40;;;7.95;;
28078;SDS011;15388;42.238;24.684;2023-06-26T08:36:58;8.53;;;7.47;;
28078;SDS011;15388;42.238;24.684;2023-06-26T08:39:23;9.55;;;7.38;;
28078;SDS011;15388;42.238;24.684;2023-06-26T08:41:49;10.48;;;7.25;;
28078;SDS011;15388;42.238;24.684;2023-06-26T08:44:14;8.77;;;6.20;;
28078;SDS011;15388;42.238;24.684;2023-06-26T08:46:39;8.47;;;6.87;;
28078;SDS011;15388;42.238;24.684;2023-06-26T08:49:08;9.40;;;7.68;;
28078;SDS011;15388;42.238;24.684;2023-06-26T08:51:38;10.48;;;6.68;;
28078;SDS011;15388;42.238;24.684;2023-06-26T08:54:05;8.93;;;7.65;;
28078;SDS011;15388;42.238;24.684;2023-06-26T08:56:32;8.57;;;6.75;;
28078;SDS011;15388;42.238;24.684;2023-06-26T08:59:00;12.68;;;7.10;;
28078;SDS011;15388;42.238;24.684;2023-06-26T09:01:26;8.43;;;7.10;;
28078;SDS011;15388;42.238;24.684;2023-06-26T09:03:51;11.07;;;7.32;;
28078;SDS011;15388;42.238;24.684;2023-06-26T09:06:17;9.48;;;8.38;;
28078;SDS011;15388;42.238;24.684;2023-06-26T09:08:43;17.23;;;8.45;;
28078;SDS011;15388;42.238;24.684;2023-06-26T09:11:09;10.05;;;8.55;;
28078;SDS011;15388;42.238;24.684;2023-06-26T09:13:34;9.83;;;7.03;;
28078;SDS011;15388;42.238;24.684;2023-06-26T09:15:59;9.52;;;7.32;;
28078;SDS011;15388;42.238;24.684;2023-06-26T09:18:31;8.95;;;7.13;;
28078;SDS011;15388;42.238;24.684;2023-06-26T09:20:56;7.03;;;6.03;;
28078;SDS011;15388;42.238;24.684;2023-06-26T09:23:21;20.70;;;5.37;;
28078;SDS011;15388;42.238;24.684;2023-06-26T09:25:47;7.40;;;5.78;;
28078;SDS011;15388;42.238;24.684;2023-06-26T09:28:12;8.57;;;5.65;;
28078;SDS011;15388;42.238;24.684;2023-06-26T09:30:37;6.68;;;5.38;;
28078;SDS011;15388;42.238;24.684;2023-06-26T09:33:16;7.13;;;6.10;;
28078;SDS011;15388;42.238;24.684;2023-06-26T09:35:42;9.02;;;5.43;;
28078;SDS011;15388;42.238;24.684;2023-06-26T09:38:08;5.70;;;5.15;;
28078;SDS011;15388;42.238;24.684;2023-06-26T09:40:33;9.27;;;3.90;;
28078;SDS011;15388;42.238;24.684;2023-06-26T09:43:06;6.40;;;4.20;;
28078;SDS011;15388;42.238;24.684;2023-06-26T09:45:32;4.80;;;3.30;;
28078;SDS011;15388;42.238;24.684;2023-06-26T09:48:01;4.93;;;4.53;;
28078;SDS011;15388;42.238;24.684;2023-06-26T09:50:30;5.68;;;4.03;;
28078;SDS011;15388;42.238;24.684;2023-06-26T09:53:13;6.22;;;4.78;;
28078;SDS011;15388;42.238;24.684;2023-06-26T09:55:38;6.88;;;6.05;;
28078;SDS011;15388;42.238;24.684;2023-06-26T09:58:05;7.55;;;5.32;;
28078;SDS011;15388;42.238;24.684;2023-06-26T10:00:30;15.82;;;5.80;;
28078;SDS011;15388;42.238;24.684;2023-06-26T10:02:56;8.32;;;5.38;;
28078;SDS011;15388;42.238;24.684;2023-06-26T10:05:21;9.60;;;5.30;;
28078;SDS011;15388;42.238;24.684;2023-06-26T10:07:46;20.55;;;5.30;;
28078;SDS011;15388;42.238;24.684;2023-06-26T10:10:12;8.73;;;5.93;;
28078;SDS011;15388;42.238;24.684;2023-06-26T10:12:38;8.98;;;5.57;;
28078;SDS011;15388;42.238;24.684;2023-06-26T10:15:03;8.68;;;5.50;;
28078;SDS011;15388;42.238;24.684;2023-06-26T10:17:30;7.43;;;5.77;;
28078;SDS011;15388;42.238;24.684;2023-06-26T10:19:57;10.65;;;6.28;;
28078;SDS011;15388;42.238;24.684;2023-06-26T10:22:25;6.47;;;5.47;;
28078;SDS011;15388;42.238;24.684;2023-06-26T10:24:52;6.15;;;5.55;;
28078;SDS011;15388;42.238;24.684;2023-06-26T10:27:20;6.00;;;4.82;;
28078;SDS011;15388;42.238;24.684;2023-06-26T10:29:46;12.02;;;5.90;;
28078;SDS011;15388;42.238;24.684;2023-06-26T10:32:12;6.45;;;5.05;;
28078;SDS011;15388;42.238;24.684;2023-06-26T10:34:38;8.23;;;5.00;;
28078;SDS011;15388;42.238;24.684;2023-06-26T10:37:04;6.83;;;5.97;;
28078;SDS011;15388;42.238;24.684;2023-06-26T10:39:45;7.60;;;5.60;;
28078;SDS011;15388;42.238;24.684;2023-06-26T10:42:11;7.20;;;6.15;;
28078;SDS011;15388;42.238;24.684;2023-06-26T10:44:43;7.90;;;5.83;;
28078;SDS011;15388;42.238;24.684;2023-06-26T10:47:09;4.93;;;4.53;;
28078;SDS011;15388;42.238;24.684;2023-06-26T10:49:35;7.13;;;4.70;;
28078;SDS011;15388;42.238;24.684;2023-06-26T10:52:02;7.30;;;4.72;;
28078;SDS011;15388;42.238;24.684;2023-06-26T10:54:31;5.63;;;5.03;;
28078;SDS011;15388;42.238;24.684;2023-06-26T10:56:56;6.30;;;4.50;;
28078;SDS011;15388;42.238;24.684;2023-06-26T10:59:23;4.33;;;3.93;;
28078;SDS011;15388;42.238;24.684;2023-06-26T11:04:35;8.75;;;4.45;;
28078;SDS011;15388;42.238;24.684;2023-06-26T11:07:14;9.32;;;4.50;;
28078;SDS011;15388;42.238;24.684;2023-06-26T11:09:52;10.23;;;4.47;;
28078;SDS011;15388;42.238;24.684;2023-06-26T11:12:33;9.38;;;5.05;;
28078;SDS011;15388;42.238;24.684;2023-06-26T11:14:58;6.25;;;4.57;;
28078;SDS011;15388;42.238;24.684;2023-06-26T11:17:25;14.20;;;6.03;;
28078;SDS011;15388;42.238;24.684;2023-06-26T11:19:50;10.20;;;5.47;;
28078;SDS011;15388;42.238;24.684;2023-06-26T11:22:16;8.03;;;5.23;;
28078;SDS011;15388;42.238;24.684;2023-06-26T11:24:41;13.03;;;6.17;;
28078;SDS011;15388;42.238;24.684;2023-06-26T11:27:07;7.47;;;5.90;;
28078;SDS011;15388;42.238;24.684;2023-06-26T11:29:32;8.57;;;5.37;;
28078;SDS011;15388;42.238;24.684;2023-06-26T11:31:59;11.73;;;5.40;;
28078;SDS011;15388;42.238;24.684;2023-06-26T11:34:25;8.05;;;5.78;;
28078;SDS011;15388;42.238;24.684;2023-06-26T11:36:56;6.70;;;4.95;;
28078;SDS011;15388;42.238;24.684;2023-06-26T11:39:21;6.60;;;4.85;;
28078;SDS011;15388;42.238;24.684;2023-06-26T11:41:46;6.43;;;4.50;;
28078;SDS011;15388;42.238;24.684;2023-06-26T11:44:12;4.83;;;4.30;;
28078;SDS011;15388;42.238;24.684;2023-06-26T11:46:39;5.85;;;4.03;;
28078;SDS011;15388;42.238;24.684;2023-06-26T11:49:04;6.35;;;5.40;;
28078;SDS011;15388;42.238;24.684;2023-06-26T11:51:30;8.23;;;5.40;;
28078;SDS011;15388;42.238;24.684;2023-06-26T11:53:55;6.93;;;5.90;;
28078;SDS011;15388;42.238;24.684;2023-06-26T11:56:21;9.13;;;5.95;;
28078;SDS011;15388;42.238;24.684;2023-06-26T11:58:57;8.82;;;4.82;;
28078;SDS011;15388;42.238;24.684;2023-06-26T12:01:24;5.35;;;4.25;;
28078;SDS011;15388;42.238;24.684;2023-06-26T12:03:50;7.80;;;4.93;;
28078;SDS011;15388;42.238;24.684;2023-06-26T12:06:15;5.30;;;4.43;;
28078;SDS011;15388;42.238;24.684;2023-06-26T12:08:41;6.53;;;5.10;;
28078;SDS011;15388;42.238;24.684;2023-06-26T12:11:06;6.63;;;4.85;;
28078;SDS011;15388;42.238;24.684;2023-06-26T12:13:32;7.43;;;5.53;;
28078;SDS011;15388;42.238;24.684;2023-06-26T12:15:57;6.72;;;5.30;;
28078;SDS011;15388;42.238;24.684;2023-06-26T12:18:23;6.77;;;5.60;;
28078;SDS011;15388;42.238;24.684;2023-06-26T12:20:50;6.35;;;4.97;;
28078;SDS011;15388;42.238;24.684;2023-06-26T12:23:15;8.13;;;5.13;;
28078;SDS011;15388;42.238;24.684;2023-06-26T12:25:40;9.20;;;5.93;;
28078;SDS011;15388;42.238;24.684;2023-06-26T12:28:14;10.07;;;5.70;;
28078;SDS011;15388;42.238;24.684;2023-06-26T12:30:40;12.48;;;6.00;;
28078;SDS011;15388;42.238;24.684;2023-06-26T12:33:12;9.37;;;6.23;;
28078;SDS011;15388;42.238;24.684;2023-06-26T12:35:37;6.90;;;5.80;;
28078;SDS011;15388;42.238;24.684;2023-06-26T12:38:05;11.17;;;6.50;;
28078;SDS011;15388;42.238;24.684;2023-06-26T12:40:30;7.65;;;6.13;;
28078;SDS011;15388;42.238;24.684;2023-06-26T12:42:56;7.27;;;5.93;;
28078;SDS011;15388;42.238;24.684;2023-06-26T12:45:21;8.87;;;6.10;;
28078;SDS011;15388;42.238;24.684;2023-06-26T12:47:46;10.67;;;6.23;;
28078;SDS011;15388;42.238;24.684;2023-06-26T12:50:13;10.20;;;5.78;;
28078;SDS011;15388;42.238;24.684;2023-06-26T12:52:38;8.03;;;5.70;;
28078;SDS011;15388;42.238;24.684;2023-06-26T12:55:04;5.90;;;5.30;;
28078;SDS011;15388;42.238;24.684;2023-06-26T12:57:31;11.80;;;5.78;;
28078;SDS011;15388;42.238;24.684;2023-06-26T12:59:56;8.17;;;5.23;;
28078;SDS011;15388;42.238;24.684;2023-06-26T13:02:21;6.10;;;5.60;;
28078;SDS011;15388;42.238;24.684;2023-06-26T13:04:47;8.03;;;5.70;;
28078;SDS011;15388;42.238;24.684;2023-06-26T13:07:13;17.67;;;5.10;;
28078;SDS011;15388;42.238;24.684;2023-06-26T13:09:38;14.57;;;6.17;;
28078;SDS011;15388;42.238;24.684;2023-06-26T13:12:06;10.47;;;5.90;;
28078;SDS011;15388;42.238;24.684;2023-06-26T13:14:31;10.77;;;5.38;;
28078;SDS011;15388;42.238;24.684;2023-06-26T13:16:58;10.20;;;5.63;;
28078;SDS011;15388;42.238;24.684;2023-06-26T13:19:23;16.83;;;6.87;;
28078;SDS011;15388;42.238;24.684;2023-06-26T13:21:48;9.23;;;5.50;;
28078;SDS011;15388;42.238;24.684;2023-06-26T13:24:14;14.97;;;5.40;;
28078;SDS011;15388;42.238;24.684;2023-06-26T13:26:39;8.73;;;5.63;;
28078;SDS011;15388;42.238;24.684;2023-06-26T13:29:05;7.57;;;5.10;;
28078;SDS011;15388;42.238;24.684;2023-06-26T13:31:30;11.27;;;5.70;;
28078;SDS011;15388;42.238;24.684;2023-06-26T13:33:57;8.30;;;5.45;;
28078;SDS011;15388;42.238;24.684;2023-06-26T13:36:22;6.43;;;4.80;;
28078;SDS011;15388;42.238;24.684;2023-06-26T13:38:49;10.17;;;5.40;;
28078;SDS011;15388;42.238;24.684;2023-06-26T13:41:20;7.57;;;4.80;;
28078;SDS011;15388;42.238;24.684;2023-06-26T13:43:46;7.33;;;4.00;;
28078;SDS011;15388;42.238;24.684;2023-06-26T13:46:11;10.93;;;3.90;;
28078;SDS011;15388;42.238;24.684;2023-06-26T13:48:36;4.00;;;3.60;;
28078;SDS011;15388;42.238;24.684;2023-06-26T13:51:02;3.90;;;3.37;;
28078;SDS011;15388;42.238;24.684;2023-06-26T13:53:27;15.98;;;4.97;;
28078;SDS011;15388;42.238;24.684;2023-06-26T13:55:53;13.57;;;4.22;;
28078;SDS011;15388;42.238;24.684;2023-06-26T13:58:19;4.53;;;3.88;;
28078;SDS011;15388;42.238;24.684;2023-06-26T14:00:49;8.82;;;3.85;;
28078;SDS011;15388;42.238;24.684;2023-06-26T14:03:14;6.53;;;3.87;;
28078;SDS011;15388;42.238;24.684;2023-06-26T14:05:39;5.43;;;3.53;;
28078;SDS011;15388;42.238;24.684;2023-06-26T14:08:07;5.38;;;3.65;;
28078;SDS011;15388;42.238;24.684;2023-06-26T14:10:33;6.13;;;3.72;;
28078;SDS011;15388;42.238;24.684;2023-06-26T14:12:58;6.25;;;4.10;;
28078;SDS011;15388;42.238;24.684;2023-06-26T14:15:24;6.40;;;4.13;;
28078;SDS011;15388;42.238;24.684;2023-06-26T14:17:49;9.27;;;4.37;;
28078;SDS011;15388;42.238;24.684;2023-06-26T14:20:15;10.38;;;4.43;;
28078;SDS011;15388;42.238;24.684;2023-06-26T14:22:41;6.47;;;4.38;;